Cabo San Vicente — 3ERK3 — position and weather

sailwx.info

Track history (hours):
 
Tides and Currents Weather Stations Pressure Air Temp Water Temp Dewpoint Dewpoint Depression Visibility Wind Speed Wind Dir Waves Ship Positions

Cabo San Vicente

Last reported at 2018-Jun-04 18:04 UTC. Time now 2018-Jun-18 03:48 UTC.
Position N 09°13' W 079°55'.
Warning: this ship's position is 13 days out of date.

Length 228 m; draft 9.1 m.

Type: Tanker. MMSI: 356022000.

Date/timePositionNaut miles runAvg speedWind from/ knotsBaromVisibWave heightAir tempDewpointWater temp
2018-Jun-04 18:04N 09°13' W 079°55'2 8.9
2018-Jun-04 17:53N 09°14' W 079°55'2 4.7
2018-Jun-04 17:29N 09°16' W 079°55'0 0.7
2018-Jun-04 17:01N 09°16' W 079°55'0 0.3
2018-Jun-04 16:26N 09°17' W 079°55'0 0.5
2018-Jun-04 16:00N 09°17' W 079°55'0 0.1
2018-Jun-04 15:30N 09°17' W 079°55'1 1.3
2018-Jun-04 15:00N 09°18' W 079°55'2 4.6
2018-Jun-04 14:31N 09°20' W 079°55'3 6.8
2018-Jun-04 14:01N 09°23' W 079°55'3 6.2
2018-Jun-04 13:30N 09°26' W 079°55'1 2.1
2018-Jun-04 12:58N 09°26' W 079°56'0 0.1
2018-Jun-04 12:28N 09°26' W 079°56'0 0.0
2018-Jun-04 11:58N 09°26' W 079°56'0 0.0
2018-Jun-04 11:28N 09°26' W 079°56'0 0.0
2018-Jun-04 10:37N 09°26' W 079°56'0 0.0
2018-Jun-04 10:28N 09°26' W 079°56'0 0.0
2018-Jun-04 09:52N 09°26' W 079°56'0 0.0
2018-Jun-04 09:28N 09°26' W 079°56'0 0.0
2018-Jun-04 08:55N 09°26' W 079°56'0 0.0
2018-Jun-04 08:28N 09°26' W 079°56'0 0.0
2018-Jun-04 07:49N 09°26' W 079°56'0 0.0
2018-Jun-04 07:28N 09°26' W 079°56'0 0.0
2018-Jun-04 06:55N 09°26' W 079°56'0 0.0
2018-Jun-04 06:28N 09°26' W 079°56'0 0.0
2018-Jun-04 05:52N 09°26' W 079°56'0 0.0
2018-Jun-04 05:19N 09°26' W 079°56'0 0.0
2018-Jun-04 04:52N 09°26' W 079°56'0 0.0
2018-Jun-04 04:25N 09°26' W 079°56'0 0.0
2018-Jun-04 03:52N 09°26' W 079°56'0 0.0
2018-Jun-04 03:28N 09°26' W 079°56'0 0.0
2018-Jun-04 02:49N 09°26' W 079°56'0 0.0
2018-Jun-04 02:28N 09°26' W 079°56'0 0.0
2018-Jun-04 01:58N 09°26' W 079°56'0 0.0
2018-Jun-04 01:22N 09°26' W 079°56'0 0.0
2018-Jun-04 00:55N 09°26' W 079°56'0 0.0
2018-Jun-04 00:19N 09°26' W 079°56'0 0.0
2018-Jun-03 23:16N 09°26' W 079°56'0 0.0
2018-Jun-03 22:10N 09°26' W 079°56'0 0.0
2018-Jun-03 21:58N 09°26' W 079°56'0 0.0
2018-Jun-03 21:28N 09°26' W 079°56'0 0.0
2018-Jun-03 20:58N 09°26' W 079°56'0 0.0
2018-Jun-03 20:28N 09°26' W 079°56'0 0.0
2018-Jun-03 19:58N 09°26' W 079°56'0 0.0
2018-Jun-03 19:28N 09°26' W 079°56'0 0.0
2018-Jun-03 18:55N 09°26' W 079°56'0 0.0
2018-Jun-03 18:25N 09°26' W 079°56'0 0.0
2018-Jun-03 17:55N 09°26' W 079°56'0 0.0
2018-Jun-03 17:22N 09°26' W 079°56'0 0.0
2018-Jun-03 16:58N 09°26' W 079°56'0 0.0
2018-Jun-03 16:22N 09°26' W 079°56'0 0.0
2018-Jun-03 15:52N 09°26' W 079°56'0 0.0
2018-Jun-03 15:28N 09°26' W 079°56'0 0.0
2018-Jun-03 14:58N 09°26' W 079°56'0 0.0
2018-Jun-03 14:28N 09°26' W 079°56'0 0.0
2018-Jun-03 13:58N 09°26' W 079°56'0 0.1
2018-Jun-03 13:25N 09°26' W 079°56'1 2.0
2018-Jun-03 13:00N 09°26' W 079°55'4 7.0
2018-Jun-03 12:30N 09°30' W 079°54'711.8
2018-Jun-03 11:55N 09°37' W 079°54'513.3
2018-Jun-03 11:30N 09°42' W 079°55'  
2018-May-29 11:22N 28°36' W 094°26'612.8
2018-May-29 10:54N 28°42' W 094°26'612.5
2018-May-29 10:25N 28°48' W 094°26'512.2
2018-May-29 10:00N 28°53' W 094°26'612.2
2018-May-29 09:30N 28°59' W 094°26'1612.0
2018-May-29 08:08N 29°14' W 094°33'212.7
2018-May-29 08:00N 29°16' W 094°35'612.3
2018-May-29 07:31N 29°20' W 094°40'713.3
2018-May-29 07:00N 29°21' W 094°47'713.2
2018-May-29 06:30N 29°27' W 094°51'612.8
2018-May-29 06:00N 29°33' W 094°54'611.3
2018-May-29 05:30N 29°38' W 094°58'510.1
2018-May-29 04:58N 29°42' W 095°01'  
2018-May-26 23:59N 29°44' W 095°03'2 4.1
2018-May-26 23:30N 29°43' W 095°01'4 7.8
2018-May-26 23:00N 29°40' W 094°58'511.0
2018-May-26 22:30N 29°35' W 094°56'612.2
2018-May-26 21:59N 29°30' W 094°52'612.4
2018-May-26 21:30N 29°24' W 094°49'611.1
2018-May-26 21:00N 29°21' W 094°44'811.9
2018-May-26 20:19N 29°17' W 094°35'2 6.9
2018-May-26 20:00N 29°15' W 094°35'2 2.9
2018-May-26 19:27N 29°15' W 094°37'0 0.1
2018-May-26 19:00N 29°15' W 094°37'0 0.0
2018-May-26 17:57N 29°15' W 094°37'0 0.0
2018-May-26 17:21N 29°15' W 094°37'0 0.0
2018-May-26 17:00N 29°15' W 094°37'0 0.0
2018-May-26 16:12N 29°15' W 094°37'0 0.0
2018-May-26 16:00N 29°15' W 094°37'0 0.0
2018-May-26 15:27N 29°15' W 094°37'0 0.0
2018-May-26 15:00N 29°15' W 094°37'0 0.1
2018-May-26 14:27N 29°15' W 094°37'0 0.0
2018-May-26 08:57N 29°15' W 094°37'0 0.0
2018-May-26 07:42N 29°15' W 094°37'0 0.0
2018-May-26 07:21N 29°15' W 094°37'0 0.0
2018-May-26 04:36N 29°15' W 094°37'0 0.0
2018-May-26 04:26N 29°15' W 094°37'0 0.0
2018-May-26 01:06N 29°15' W 094°37'0 0.2
2018-May-26 01:00N 29°15' W 094°37'0 0.0
2018-May-25 19:11N 29°15' W 094°37'  
Track history (hours):
 
Tides and Currents Weather Stations Pressure Air Temp Water Temp Dewpoint Dewpoint Depression Visibility Wind Speed Wind Dir Waves Ship Positions

Cabo San Vicente

Last reported at 2018-Jun-04 18:04 UTC. Time now 2018-Jun-18 03:48 UTC.
Position N 09°13' W 079°55'.
Warning: this ship's position is 13 days out of date.

Length 228 m; draft 9.1 m.

Type: Tanker. MMSI: 356022000.

Date/timePositionNaut miles runAvg speedWind from/ knotsBaromVisibWave heightAir tempDewpointWater temp
2018-Jun-04 18:04N 09°13' W 079°55'2 8.9
2018-Jun-04 17:53N 09°14' W 079°55'2 4.7
2018-Jun-04 17:29N 09°16' W 079°55'0 0.7
2018-Jun-04 17:01N 09°16' W 079°55'0 0.3
2018-Jun-04 16:26N 09°17' W 079°55'0 0.5
2018-Jun-04 16:00N 09°17' W 079°55'0 0.1
2018-Jun-04 15:30N 09°17' W 079°55'1 1.3
2018-Jun-04 15:00N 09°18' W 079°55'2 4.6
2018-Jun-04 14:31N 09°20' W 079°55'3 6.8
2018-Jun-04 14:01N 09°23' W 079°55'3 6.2
2018-Jun-04 13:30N 09°26' W 079°55'1 2.1
2018-Jun-04 12:58N 09°26' W 079°56'0 0.1
2018-Jun-04 12:28N 09°26' W 079°56'0 0.0
2018-Jun-04 11:58N 09°26' W 079°56'0 0.0
2018-Jun-04 11:28N 09°26' W 079°56'0 0.0
2018-Jun-04 10:37N 09°26' W 079°56'0 0.0
2018-Jun-04 10:28N 09°26' W 079°56'0 0.0
2018-Jun-04 09:52N 09°26' W 079°56'0 0.0
2018-Jun-04 09:28N 09°26' W 079°56'0 0.0
2018-Jun-04 08:55N 09°26' W 079°56'0 0.0
2018-Jun-04 08:28N 09°26' W 079°56'0 0.0
2018-Jun-04 07:49N 09°26' W 079°56'0 0.0
2018-Jun-04 07:28N 09°26' W 079°56'0 0.0
2018-Jun-04 06:55N 09°26' W 079°56'0 0.0
2018-Jun-04 06:28N 09°26' W 079°56'0 0.0
2018-Jun-04 05:52N 09°26' W 079°56'0 0.0
2018-Jun-04 05:19N 09°26' W 079°56'0 0.0
2018-Jun-04 04:52N 09°26' W 079°56'0 0.0
2018-Jun-04 04:25N 09°26' W 079°56'0 0.0
2018-Jun-04 03:52N 09°26' W 079°56'0 0.0
2018-Jun-04 03:28N 09°26' W 079°56'0 0.0
2018-Jun-04 02:49N 09°26' W 079°56'0 0.0
2018-Jun-04 02:28N 09°26' W 079°56'0 0.0
2018-Jun-04 01:58N 09°26' W 079°56'0 0.0
2018-Jun-04 01:22N 09°26' W 079°56'0 0.0
2018-Jun-04 00:55N 09°26' W 079°56'0 0.0
2018-Jun-04 00:19N 09°26' W 079°56'0 0.0
2018-Jun-03 23:16N 09°26' W 079°56'0 0.0
2018-Jun-03 22:10N 09°26' W 079°56'0 0.0
2018-Jun-03 21:58N 09°26' W 079°56'0 0.0
2018-Jun-03 21:28N 09°26' W 079°56'0 0.0
2018-Jun-03 20:58N 09°26' W 079°56'0 0.0
2018-Jun-03 20:28N 09°26' W 079°56'0 0.0
2018-Jun-03 19:58N 09°26' W 079°56'0 0.0
2018-Jun-03 19:28N 09°26' W 079°56'0 0.0
2018-Jun-03 18:55N 09°26' W 079°56'0 0.0
2018-Jun-03 18:25N 09°26' W 079°56'0 0.0
2018-Jun-03 17:55N 09°26' W 079°56'0 0.0
2018-Jun-03 17:22N 09°26' W 079°56'0 0.0
2018-Jun-03 16:58N 09°26' W 079°56'0 0.0
2018-Jun-03 16:22N 09°26' W 079°56'0 0.0
2018-Jun-03 15:52N 09°26' W 079°56'0 0.0
2018-Jun-03 15:28N 09°26' W 079°56'0 0.0
2018-Jun-03 14:58N 09°26' W 079°56'0 0.0
2018-Jun-03 14:28N 09°26' W 079°56'0 0.0
2018-Jun-03 13:58N 09°26' W 079°56'0 0.1
2018-Jun-03 13:25N 09°26' W 079°56'1 2.0
2018-Jun-03 13:00N 09°26' W 079°55'4 7.0
2018-Jun-03 12:30N 09°30' W 079°54'711.8
2018-Jun-03 11:55N 09°37' W 079°54'513.3
2018-Jun-03 11:30N 09°42' W 079°55'  
2018-May-29 11:22N 28°36' W 094°26'612.8
2018-May-29 10:54N 28°42' W 094°26'612.5
2018-May-29 10:25N 28°48' W 094°26'512.2
2018-May-29 10:00N 28°53' W 094°26'612.2
2018-May-29 09:30N 28°59' W 094°26'1612.0
2018-May-29 08:08N 29°14' W 094°33'212.7
2018-May-29 08:00N 29°16' W 094°35'612.3
2018-May-29 07:31N 29°20' W 094°40'713.3
2018-May-29 07:00N 29°21' W 094°47'713.2
2018-May-29 06:30N 29°27' W 094°51'612.8
2018-May-29 06:00N 29°33' W 094°54'611.3
2018-May-29 05:30N 29°38' W 094°58'510.1
2018-May-29 04:58N 29°42' W 095°01'  
2018-May-26 23:59N 29°44' W 095°03'2 4.1
2018-May-26 23:30N 29°43' W 095°01'4 7.8
2018-May-26 23:00N 29°40' W 094°58'511.0
2018-May-26 22:30N 29°35' W 094°56'612.2
2018-May-26 21:59N 29°30' W 094°52'612.4
2018-May-26 21:30N 29°24' W 094°49'611.1
2018-May-26 21:00N 29°21' W 094°44'811.9
2018-May-26 20:19N 29°17' W 094°35'2 6.9
2018-May-26 20:00N 29°15' W 094°35'2 2.9
2018-May-26 19:27N 29°15' W 094°37'0 0.1
2018-May-26 19:00N 29°15' W 094°37'0 0.0
2018-May-26 17:57N 29°15' W 094°37'0 0.0
2018-May-26 17:21N 29°15' W 094°37'0 0.0
2018-May-26 17:00N 29°15' W 094°37'0 0.0
2018-May-26 16:12N 29°15' W 094°37'0 0.0
2018-May-26 16:00N 29°15' W 094°37'0 0.0
2018-May-26 15:27N 29°15' W 094°37'0 0.0
2018-May-26 15:00N 29°15' W 094°37'0 0.1
2018-May-26 14:27N 29°15' W 094°37'0 0.0
2018-May-26 08:57N 29°15' W 094°37'0 0.0
2018-May-26 07:42N 29°15' W 094°37'0 0.0
2018-May-26 07:21N 29°15' W 094°37'0 0.0
2018-May-26 04:36N 29°15' W 094°37'0 0.0
2018-May-26 04:26N 29°15' W 094°37'0 0.0
2018-May-26 01:06N 29°15' W 094°37'0 0.2
2018-May-26 01:00N 29°15' W 094°37'0 0.0
2018-May-25 19:11N 29°15' W 094°37'  

Dump ship's entire track history